IBB401 GCRR-GCGM
Flight info
| Callsign | IBB401 |
|---|---|
| Flight time | N/A |
| Altitude | 17000 |
| Route | LORP3M LORPO LPC MOVAS |
| Aircraft | AT75/M-SDE2E3FGHIRWXY/LB1 |
Departure
| Time | 2026-05-03 21:37 |
|---|---|
| Airport | César Manrique-Lanzarote Airport (GCRR) |
Arrival
| Time | N/A |
|---|---|
| Airport | La Gomera Airport (GCGM) |
| Time | Latitude | Longitude | Altitude | Speed | Heading |
|---|---|---|---|---|---|
| 2026-05-03 21:24 | 28.94956 | -13.60602 | 53 ft | 0 kts | 281° |
| 2026-05-03 21:31 | 28.94959 | -13.60609 | 53 ft | 3 kts | 292° |
| 2026-05-03 21:31 | 28.94937 | -13.60631 | 53 ft | 6 kts | 185° |
| 2026-05-03 21:32 | 28.94915 | -13.60606 | 53 ft | 5 kts | 105° |
| 2026-05-03 21:32 | 28.94905 | -13.60572 | 53 ft | 4 kts | 115° |
| 2026-05-03 21:32 | 28.94884 | -13.60557 | 53 ft | 4 kts | 188° |
| 2026-05-03 21:32 | 28.94858 | -13.60566 | 53 ft | 4 kts | 202° |
| 2026-05-03 21:33 | 28.94829 | -13.60582 | 53 ft | 5 kts | 206° |
| 2026-05-03 21:33 | 28.94783 | -13.60609 | 53 ft | 10 kts | 207° |
| 2026-05-03 21:33 | 28.94692 | -13.60662 | 53 ft | 21 kts | 207° |
| 2026-05-03 21:33 | 28.94526 | -13.60758 | 53 ft | 31 kts | 207° |
| 2026-05-03 21:34 | 28.94307 | -13.60882 | 53 ft | 38 kts | 205° |
| 2026-05-03 21:34 | 28.94059 | -13.61027 | 54 ft | 40 kts | 207° |
| 2026-05-03 21:34 | 28.93830 | -13.61159 | 53 ft | 32 kts | 208° |
| 2026-05-03 21:34 | 28.93705 | -13.61232 | 53 ft | 12 kts | 207° |
| 2026-05-03 21:35 | 28.93671 | -13.61228 | 53 ft | 0 kts | 122° |
| 2026-05-03 21:35 | 28.93669 | -13.61224 | 53 ft | 2 kts | 116° |
| 2026-05-03 21:35 | 28.93653 | -13.61189 | 53 ft | 6 kts | 118° |
| 2026-05-03 21:35 | 28.93643 | -13.61165 | 53 ft | 3 kts | 115° |
| 2026-05-03 21:36 | 28.93625 | -13.61119 | 53 ft | 10 kts | 114° |
| 2026-05-03 21:36 | 28.93620 | -13.61059 | 53 ft | 7 kts | 33° |
| 2026-05-03 21:36 | 28.93773 | -13.60970 | 54 ft | 61 kts | 25° |
| 2026-05-03 21:36 | 28.94351 | -13.60633 | 127 ft | 113 kts | 25° |
| 2026-05-03 21:37 | 28.95063 | -13.60179 | 626 ft | 126 kts | 31° |
| 2026-05-03 21:37 | 28.95861 | -13.59549 | 1017 ft | 153 kts | 35° |
| 2026-05-03 21:37 | 28.96742 | -13.58850 | 1744 ft | 155 kts | 35° |
| 2026-05-03 21:37 | 28.97648 | -13.58126 | 2448 ft | 161 kts | 34° |
| 2026-05-03 21:38 | 28.98587 | -13.57379 | 3152 ft | 168 kts | 34° |
| 2026-05-03 21:38 | 28.99539 | -13.56605 | 3865 ft | 167 kts | 35° |
| 2026-05-03 21:38 | 29.00431 | -13.55756 | 4389 ft | 171 kts | 43° |
| 2026-05-03 21:38 | 29.01237 | -13.54725 | 4830 ft | 177 kts | 47° |
| 2026-05-03 21:39 | 29.02043 | -13.53637 | 5256 ft | 180 kts | 48° |
| 2026-05-03 21:39 | 29.02844 | -13.52533 | 5676 ft | 181 kts | 48° |
| 2026-05-03 21:39 | 29.03646 | -13.51413 | 6064 ft | 185 kts | 48° |
| 2026-05-03 21:39 | 29.04468 | -13.50264 | 6496 ft | 187 kts | 47° |
| 2026-05-03 21:40 | 29.05300 | -13.49123 | 6914 ft | 189 kts | 47° |
| 2026-05-03 21:40 | 29.06165 | -13.47958 | 7321 ft | 191 kts | 47° |
| 2026-05-03 21:40 | 29.07028 | -13.46796 | 7685 ft | 193 kts | 45° |
| 2026-05-03 21:40 | 29.08173 | -13.46075 | 8024 ft | 185 kts | 10° |
| 2026-05-03 21:41 | 29.09397 | -13.46266 | 8373 ft | 181 kts | 338° |
| 2026-05-03 21:41 | 29.10528 | -13.46924 | 8739 ft | 184 kts | 329° |
| 2026-05-03 21:41 | 29.11627 | -13.47667 | 9148 ft | 184 kts | 327° |
| 2026-05-03 21:41 | 29.12722 | -13.48431 | 9551 ft | 185 kts | 326° |
| 2026-05-03 21:42 | 29.13828 | -13.49198 | 9938 ft | 186 kts | 326° |
| 2026-05-03 21:42 | 29.14944 | -13.49967 | 10301 ft | 188 kts | 325° |
| 2026-05-03 21:42 | 29.15790 | -13.51070 | 10633 ft | 183 kts | 294° |
| 2026-05-03 21:42 | 29.16033 | -13.52480 | 11013 ft | 183 kts | 277° |
| 2026-05-03 21:43 | 29.15965 | -13.53946 | 11350 ft | 185 kts | 263° |
| 2026-05-03 21:43 | 29.15683 | -13.55361 | 11728 ft | 185 kts | 258° |
| 2026-05-03 21:43 | 29.15360 | -13.56801 | 12093 ft | 186 kts | 258° |
| 2026-05-03 21:43 | 29.15041 | -13.58236 | 12456 ft | 186 kts | 258° |
| 2026-05-03 21:44 | 29.14720 | -13.59675 | 12809 ft | 186 kts | 258° |
| 2026-05-03 21:44 | 29.14401 | -13.61116 | 13147 ft | 187 kts | 258° |
| 2026-05-03 21:44 | 29.14086 | -13.62561 | 13498 ft | 188 kts | 258° |
| 2026-05-03 21:44 | 29.13772 | -13.64013 | 13835 ft | 188 kts | 258° |
| 2026-05-03 21:45 | 29.13461 | -13.65455 | 14157 ft | 189 kts | 258° |
| 2026-05-03 21:45 | 29.12790 | -13.66747 | 14456 ft | 195 kts | 229° |
| 2026-05-03 21:45 | 29.11639 | -13.67588 | 14779 ft | 200 kts | 214° |
| 2026-05-03 21:45 | 29.10337 | -13.68213 | 15049 ft | 206 kts | 205° |
| 2026-05-03 21:46 | 29.08948 | -13.68648 | 15377 ft | 207 kts | 201° |
| 2026-05-03 21:46 | 29.07554 | -13.69031 | 15694 ft | 208 kts | 200° |
| 2026-05-03 21:46 | 29.06125 | -13.69411 | 16031 ft | 208 kts | 200° |
| 2026-05-03 21:46 | 29.04725 | -13.69779 | 16345 ft | 209 kts | 200° |
| 2026-05-03 21:47 | 29.03306 | -13.70158 | 16647 ft | 210 kts | 201° |
| 2026-05-03 21:47 | 29.01885 | -13.70567 | 16918 ft | 211 kts | 203° |
| 2026-05-03 21:47 | 29.00634 | -13.71393 | 17055 ft | 210 kts | 224° |
| 2026-05-03 21:47 | 28.99546 | -13.72560 | 17110 ft | 218 kts | 230° |
| 2026-05-03 21:48 | 28.98479 | -13.73845 | 17119 ft | 226 kts | 232° |
| 2026-05-03 21:48 | 28.97408 | -13.75167 | 17117 ft | 231 kts | 232° |
| 2026-05-03 21:48 | 28.96307 | -13.76538 | 17116 ft | 236 kts | 232° |
| 2026-05-03 21:48 | 28.95185 | -13.77935 | 17114 ft | 239 kts | 232° |
| 2026-05-03 21:49 | 28.94028 | -13.79318 | 17114 ft | 242 kts | 231° |
| 2026-05-03 21:49 | 28.92856 | -13.80712 | 17114 ft | 244 kts | 231° |
| 2026-05-03 21:49 | 28.91675 | -13.82117 | 17114 ft | 246 kts | 231° |
| 2026-05-03 21:49 | 28.90483 | -13.83525 | 17112 ft | 248 kts | 232° |
| 2026-05-03 21:50 | 28.89285 | -13.84949 | 17019 ft | 253 kts | 232° |
| 2026-05-03 21:50 | 28.88033 | -13.86436 | 16872 ft | 259 kts | 232° |
| 2026-05-03 21:50 | 28.86777 | -13.87925 | 16724 ft | 263 kts | 231° |
| 2026-05-03 21:50 | 28.85518 | -13.89422 | 16577 ft | 266 kts | 231° |
| 2026-05-03 21:51 | 28.84235 | -13.90953 | 16427 ft | 268 kts | 231° |
| 2026-05-03 21:51 | 28.82947 | -13.92493 | 16278 ft | 269 kts | 231° |
| 2026-05-03 21:51 | 28.81647 | -13.94049 | 16127 ft | 272 kts | 230° |
| 2026-05-03 21:51 | 28.80336 | -13.95621 | 15978 ft | 274 kts | 230° |
| 2026-05-03 21:52 | 28.79006 | -13.97197 | 15828 ft | 276 kts | 230° |
| 2026-05-03 21:52 | 28.77674 | -13.98784 | 15679 ft | 277 kts | 230° |
| 2026-05-03 21:52 | 28.76328 | -14.00371 | 15529 ft | 278 kts | 230° |
| 2026-05-03 21:52 | 28.75000 | -14.01946 | 15380 ft | 279 kts | 230° |
| 2026-05-03 21:53 | 28.73635 | -14.03563 | 15236 ft | 279 kts | 230° |
| 2026-05-03 21:53 | 28.72306 | -14.05140 | 15145 ft | 278 kts | 230° |
| 2026-05-03 21:53 | 28.70976 | -14.06715 | 15118 ft | 275 kts | 230° |
| 2026-05-03 21:53 | 28.69647 | -14.08286 | 15111 ft | 272 kts | 230° |
| 2026-05-03 21:54 | 28.68341 | -14.09828 | 15109 ft | 269 kts | 230° |
| 2026-05-03 21:54 | 28.67045 | -14.11358 | 15108 ft | 267 kts | 230° |
| 2026-05-03 21:54 | 28.65759 | -14.12877 | 15108 ft | 266 kts | 230° |
| 2026-05-03 21:54 | 28.64476 | -14.14396 | 15109 ft | 265 kts | 230° |
| 2026-05-03 21:55 | 28.63199 | -14.15919 | 15110 ft | 264 kts | 230° |
| 2026-05-03 21:55 | 28.61951 | -14.17409 | 15110 ft | 264 kts | 230° |
| 2026-05-03 21:55 | 28.60687 | -14.18919 | 15110 ft | 263 kts | 230° |
| 2026-05-03 21:55 | 28.59428 | -14.20424 | 15110 ft | 263 kts | 230° |
| 2026-05-03 21:56 | 28.58158 | -14.21927 | 15110 ft | 263 kts | 230° |
| 2026-05-03 21:56 | 28.56884 | -14.23417 | 15110 ft | 263 kts | 230° |
| 2026-05-03 21:56 | 28.55615 | -14.24907 | 15110 ft | 262 kts | 230° |
| 2026-05-03 21:56 | 28.54342 | -14.26401 | 15109 ft | 262 kts | 230° |
| 2026-05-03 21:57 | 28.53070 | -14.27897 | 15109 ft | 262 kts | 230° |
| 2026-05-03 21:57 | 28.51803 | -14.29388 | 15109 ft | 262 kts | 230° |
| 2026-05-03 21:57 | 28.50539 | -14.30878 | 15106 ft | 262 kts | 230° |
| 2026-05-03 21:57 | 28.49277 | -14.32383 | 15105 ft | 262 kts | 231° |
| 2026-05-03 21:58 | 28.48011 | -14.33883 | 15105 ft | 262 kts | 230° |
| 2026-05-03 21:58 | 28.46747 | -14.35373 | 15106 ft | 262 kts | 230° |
| 2026-05-03 21:58 | 28.45485 | -14.36874 | 15106 ft | 262 kts | 231° |
| 2026-05-03 21:58 | 28.44222 | -14.38365 | 15106 ft | 262 kts | 230° |
| 2026-05-03 21:59 | 28.42972 | -14.39845 | 15106 ft | 262 kts | 231° |
| 2026-05-03 21:59 | 28.41693 | -14.41361 | 15106 ft | 262 kts | 230° |
| 2026-05-03 21:59 | 28.40440 | -14.42836 | 15106 ft | 262 kts | 230° |
| 2026-05-03 21:59 | 28.39179 | -14.44332 | 15105 ft | 262 kts | 231° |
| 2026-05-03 22:00 | 28.37920 | -14.45824 | 15105 ft | 262 kts | 230° |
| 2026-05-03 22:00 | 28.36651 | -14.47316 | 15105 ft | 262 kts | 230° |
| 2026-05-03 22:00 | 28.35387 | -14.48805 | 15104 ft | 262 kts | 231° |
| 2026-05-03 22:00 | 28.34123 | -14.50305 | 15104 ft | 262 kts | 231° |
| 2026-05-03 22:01 | 28.32853 | -14.51799 | 15103 ft | 262 kts | 230° |
| 2026-05-03 22:01 | 28.31590 | -14.53283 | 15103 ft | 262 kts | 231° |
| 2026-05-03 22:01 | 28.30329 | -14.54781 | 15111 ft | 262 kts | 231° |
| 2026-05-03 22:01 | 28.29059 | -14.56274 | 15115 ft | 262 kts | 230° |
| 2026-05-03 22:02 | 28.27798 | -14.57769 | 15116 ft | 262 kts | 231° |
| 2026-05-03 22:02 | 28.26676 | -14.59358 | 15058 ft | 262 kts | 239° |
| 2026-05-03 22:02 | 28.25846 | -14.61205 | 14867 ft | 265 kts | 252° |
| 2026-05-03 22:02 | 28.25533 | -14.63303 | 14521 ft | 273 kts | 270° |
| 2026-05-03 22:03 | 28.25963 | -14.65420 | 14058 ft | 282 kts | 293° |
| 2026-05-03 22:03 | 28.27164 | -14.67102 | 13548 ft | 294 kts | 317° |